TimeEST,TemperatureF,Dew PointF,Humidity,Sea Level PressureIn,VisibilityMPH,Wind Direction,Wind SpeedMPH,Gust SpeedMPH,PrecipitationIn,Events,Conditions,WindDirDegrees,DateUTC
12:54 AM,23.0,6.1,48,29.49,-9999.0,North,-9999.0,-,N/A,,Unknown,0,2013-02-01 05:54:00
1:54 AM,21.9,6.1,51,29.51,-9999.0,North,-9999.0,-,N/A,,Unknown,0,2013-02-01 06:54:00
2:54 AM,21.0,8.1,57,29.53,-9999.0,North,-9999.0,-,N/A,,Unknown,0,2013-02-01 07:54:00
3:54 AM,19.9,9.0,62,29.55,-9999.0,North,-9999.0,-,N/A,,Unknown,0,2013-02-01 08:54:00
4:54 AM,16.0,8.1,71,29.59,-9999.0,North,-9999.0,-,N/A,,Unknown,0,2013-02-01 09:54:00
5:54 AM,14.0,7.0,74,29.63,-9999.0,North,-9999.0,-,N/A,,Unknown,0,2013-02-01 10:54:00
6:54 AM,12.9,5.0,71,29.67,-9999.0,North,-9999.0,-,N/A,,Unknown,0,2013-02-01 11:54:00
7:54 AM,12.9,5.0,71,29.71,-9999.0,North,-9999.0,-,N/A,,Unknown,0,2013-02-01 12:54:00
8:54 AM,12.9,3.9,67,29.75,-9999.0,North,-9999.0,-,N/A,,Unknown,0,2013-02-01 13:54:00
9:54 AM,15.1,3.9,61,29.78,-9999.0,North,-9999.0,-,N/A,,Unknown,0,2013-02-01 14:54:00
10:54 AM,16.0,3.9,59,29.81,-9999.0,North,-9999.0,-,N/A,,Unknown,0,2013-02-01 15:54:00
11:54 AM,17.1,5.0,59,29.81,-9999.0,North,-9999.0,-,N/A,,Unknown,0,2013-02-01 16:54:00
12:54 PM,18.0,3.9,54,29.81,-9999.0,North,-9999.0,-,N/A,,Unknown,0,2013-02-01 17:54:00
1:54 PM,18.0,3.0,52,29.83,-9999.0,North,-9999.0,-,N/A,,Unknown,0,2013-02-01 18:54:00
2:54 PM,16.0,3.0,57,29.85,-9999.0,North,-9999.0,-,N/A,,Unknown,0,2013-02-01 19:54:00
3:54 PM,15.1,1.0,54,29.88,-9999.0,North,-9999.0,-,N/A,,Unknown,0,2013-02-01 20:54:00
4:54 PM,14.0,1.9,59,29.91,-9999.0,North,-9999.0,-,N/A,,Unknown,0,2013-02-01 21:54:00
5:54 PM,14.0,1.0,56,29.95,-9999.0,North,-9999.0,-,N/A,,Unknown,0,2013-02-01 22:54:00
6:54 PM,12.9,-0.0,56,30.00,-9999.0,North,-9999.0,-,N/A,,Unknown,0,2013-02-01 23:54:00
7:54 PM,12.0,-2.0,53,30.04,-9999.0,North,-9999.0,-,N/A,,Unknown,0,2013-02-02 00:54:00
8:54 PM,12.0,-2.0,53,30.05,-9999.0,North,-9999.0,-,N/A,,Unknown,0,2013-02-02 01:54:00
9:54 PM,12.0,-0.9,56,30.06,-9999.0,North,-9999.0,-,N/A,,Unknown,0,2013-02-02 02:54:00
10:54 PM,12.0,1.0,61,30.08,-9999.0,North,-9999.0,-,N/A,,Unknown,0,2013-02-02 03:54:00
11:54 PM,10.9,1.0,64,30.10,-9999.0,North,-9999.0,-,N/A,,Unknown,0,2013-02-02 04:54:00